Time;durP1;ratioP1;P1;durP2;ratioP2;P2;SDS_P1;SDS_P2;PMS_P1;PMS_P2;Temp;Humidity;BMP_temperature;BMP_pressure;BME280_temperature;BME280_humidity;BME280_pressure;Samples;Min_cycle;Max_cycle;Signal;HPM_P1;HPM_P2
2021/05/19 00:01:22;;;;;;;1.88;1.73;;;8.20;99.90;;;;;;4858621;29;20407;-92
2021/05/19 00:03:47;;;;;;;1.73;1.63;;;8.10;99.90;;;;;;4884010;29;20407;-90
2021/05/19 00:06:13;;;;;;;1.88;1.65;;;8.10;99.90;;;;;;4873900;29;20408;-92
2021/05/19 00:08:39;;;;;;;2.20;2.00;;;8.00;99.90;;;;;;4866248;29;20926;-91
2021/05/19 00:11:05;;;;;;;2.10;1.90;;;8.10;99.90;;;;;;4884796;29;20482;-92
2021/05/19 00:13:33;;;;;;;1.90;1.80;;;7.90;99.90;;;;;;4884587;29;20411;-91
2021/05/19 00:15:58;;;;;;;1.73;1.63;;;7.90;99.90;;;;;;4884408;29;20476;-91
2021/05/19 00:18:24;;;;;;;1.80;1.70;;;7.90;99.90;;;;;;4851338;29;20483;-93
2021/05/19 00:20:50;;;;;;;2.13;1.87;;;7.90;99.90;;;;;;4869837;29;20499;-95
2021/05/19 00:23:15;;;;;;;2.38;2.08;;;7.90;99.90;;;;;;4887326;29;21237;-93
2021/05/19 00:25:41;;;;;;;1.90;1.80;;;7.90;99.90;;;;;;4883408;29;20405;-85
2021/05/19 00:28:07;;;;;;;1.95;1.85;;;7.90;99.90;;;;;;4872284;29;20464;-93
2021/05/19 00:30:35;;;;;;;2.20;2.00;;;7.90;99.90;;;;;;4871444;29;20402;-92
2021/05/19 00:33:00;;;;;;;2.00;1.80;;;7.90;99.90;;;;;;4900519;29;20752;-93
2021/05/19 00:35:26;;;;;;;1.83;1.73;;;7.80;99.90;;;;;;4866669;29;20415;-91
2021/05/19 00:37:51;;;;;;;2.07;1.90;;;7.80;99.90;;;;;;4858654;29;20556;-90
2021/05/19 00:40:17;;;;;;;1.38;1.30;;;7.80;99.90;;;;;;4874131;29;20406;-88
2021/05/19 00:42:43;;;;;;;1.97;1.80;;;7.80;99.90;;;;;;4859839;29;20768;-90
2021/05/19 00:45:09;;;;;;;1.88;1.58;;;7.80;99.90;;;;;;4892893;29;20437;-87
2021/05/19 00:47:39;;;;;;;1.75;1.65;;;7.80;99.90;;;;;;4860276;29;20397;-86
2021/05/19 00:50:06;;;;;;;1.92;1.83;;;7.70;99.90;;;;;;4889031;29;20401;-89
2021/05/19 00:52:32;;;;;;;2.78;1.80;;;7.70;99.90;;;;;;4885140;29;20924;-88
2021/05/19 00:54:57;;;;;;;3.70;1.90;;;7.70;99.90;;;;;;4882313;29;20413;-94
2021/05/19 00:57:23;;;;;;;1.70;1.60;;;7.60;99.90;;;;;;4868143;29;20407;-94
2021/05/19 00:59:49;;;;;;;1.73;1.60;;;7.60;99.90;;;;;;4869073;29;20429;-87
2021/05/19 01:02:18;;;;;;;1.70;1.60;;;7.50;99.90;;;;;;4853030;29;20403;-91
2021/05/19 01:04:44;;;;;;;1.70;1.60;;;7.60;99.90;;;;;;4871631;29;20417;-94
2021/05/19 01:07:28;;;;;;;1.65;1.55;;;7.60;99.90;;;;;;4869387;29;20408;-92
2021/05/19 01:09:54;;;;;;;2.00;1.90;;;7.60;99.90;;;;;;4870474;29;20408;-93
2021/05/19 01:12:21;;;;;;;3.22;1.73;;;7.60;99.90;;;;;;4859342;29;20487;-94
2021/05/19 01:14:47;;;;;;;2.00;1.90;;;7.60;99.90;;;;;;4865349;29;20419;-89
2021/05/19 01:17:13;;;;;;;2.88;1.88;;;7.60;99.90;;;;;;4869976;29;20421;-91
2021/05/19 01:19:40;;;;;;;1.73;1.63;;;7.50;99.90;;;;;;4875062;29;20437;-91
2021/05/19 01:22:32;;;;;;;5.70;1.70;;;7.50;99.90;;;;;;4855633;29;20943;-87
2021/05/19 01:24:59;;;;;;;1.58;1.48;;;7.50;99.90;;;;;;4892043;29;20414;-94
2021/05/19 01:27:25;;;;;;;2.88;1.80;;;7.40;99.90;;;;;;4879086;29;20401;-91
2021/05/19 01:29:55;;;;;;;2.42;1.77;;;7.30;99.90;;;;;;4870885;29;20470;-87
2021/05/19 01:32:21;;;;;;;5.13;1.92;;;7.20;99.90;;;;;;4870016;29;20415;-92
2021/05/19 01:34:47;;;;;;;2.13;1.88;;;7.20;99.90;;;;;;4868922;29;20793;-81
2021/05/19 01:37:13;;;;;;;1.88;1.77;;;7.20;99.90;;;;;;4871974;29;20405;-93
2021/05/19 01:39:39;;;;;;;1.90;1.80;;;7.30;99.90;;;;;;4839272;29;20434;-92
2021/05/19 01:42:05;;;;;;;1.80;1.70;;;7.30;99.90;;;;;;4897284;29;20493;-93
2021/05/19 01:44:32;;;;;;;2.17;1.98;;;7.30;99.90;;;;;;4874262;29;20428;-93
2021/05/19 01:47:02;;;;;;;1.80;1.70;;;7.20;99.90;;;;;;4867012;29;20411;-93
2021/05/19 01:49:30;;;;;;;1.80;1.70;;;7.20;99.90;;;;;;4864866;29;20407;-90
2021/05/19 01:51:59;;;;;;;2.28;2.08;;;7.20;99.90;;;;;;4872975;29;20416;-93
2021/05/19 01:54:29;;;;;;;1.95;1.75;;;7.30;99.90;;;;;;4871567;29;20477;-91
2021/05/19 01:56:55;;;;;;;2.17;1.98;;;7.30;99.90;;;;;;4865723;29;20450;-95
2021/05/19 01:59:20;;;;;;;2.80;2.25;;;7.30;99.90;;;;;;4867306;29;20676;-89
2021/05/19 02:01:47;;;;;;;2.20;2.00;;;7.20;99.90;;;;;;4878479;29;20405;-94
2021/05/19 02:04:15;;;;;;;2.25;2.05;;;7.30;99.90;;;;;;4887874;29;20406;-92
2021/05/19 02:06:55;;;;;;;2.50;2.00;;;7.30;99.90;;;;;;4868550;29;20407;-91
2021/05/19 02:09:24;;;;;;;2.17;2.00;;;7.20;99.90;;;;;;4850605;29;20411;-90
2021/05/19 02:11:50;;;;;;;1.95;1.85;;;7.20;99.90;;;;;;4871165;29;20409;-91
2021/05/19 02:14:17;;;;;;;2.50;2.03;;;7.10;99.90;;;;;;4868358;29;20420;-90
2021/05/19 02:16:43;;;;;;;4.03;2.00;;;7.10;99.90;;;;;;4879539;29;20403;-91
2021/05/19 02:19:13;;;;;;;1.70;1.60;;;7.00;99.90;;;;;;4882059;29;20962;-92
2021/05/19 02:21:48;;;;;;;2.63;2.10;;;7.10;99.90;;;;;;4892615;29;20505;-93
2021/05/19 02:24:16;;;;;;;2.40;2.20;;;7.00;99.90;;;;;;4869060;29;20421;-92
2021/05/19 02:26:43;;;;;;;2.03;1.92;;;7.00;99.90;;;;;;4861072;29;20423;-93
2021/05/19 02:29:11;;;;;;;2.10;1.90;;;7.00;99.90;;;;;;4880797;29;20961;-93
2021/05/19 02:31:37;;;;;;;1.70;1.60;;;7.10;99.90;;;;;;4873020;29;20418;-93
2021/05/19 02:34:03;;;;;;;2.00;1.90;;;7.00;99.90;;;;;;4867543;29;20405;-94
2021/05/19 02:36:29;;;;;;;4.85;2.00;;;7.00;99.90;;;;;;4866544;29;20409;-94
2021/05/19 02:38:55;;;;;;;1.90;1.80;;;6.90;99.90;;;;;;4852148;29;21112;-91
2021/05/19 02:41:21;;;;;;;2.03;1.83;;;6.90;99.90;;;;;;4876078;29;22013;-95
2021/05/19 02:43:46;;;;;;;2.25;2.00;;;6.80;99.90;;;;;;4877105;29;20408;-91
2021/05/19 02:46:13;;;;;;;2.00;1.90;;;6.80;99.90;;;;;;4885359;29;20470;-93
2021/05/19 02:48:39;;;;;;;2.28;2.08;;;6.70;99.90;;;;;;4869706;29;20402;-94
2021/05/19 02:51:05;;;;;;;2.00;1.90;;;6.70;99.90;;;;;;4867307;29;20803;-92
2021/05/19 02:53:31;;;;;;;2.28;2.10;;;6.70;99.90;;;;;;4850273;29;20405;-92
2021/05/19 02:55:56;;;;;;;2.07;1.97;;;6.70;99.90;;;;;;4888957;29;20773;-91
2021/05/19 02:58:22;;;;;;;1.90;1.80;;;6.60;99.90;;;;;;4858498;29;20397;-89
2021/05/19 03:00:47;;;;;;;2.20;2.00;;;6.60;99.90;;;;;;4851004;29;20390;-91
2021/05/19 03:03:13;;;;;;;1.90;1.80;;;6.70;99.90;;;;;;4859513;29;20389;-91
2021/05/19 03:05:39;;;;;;;2.25;2.08;;;6.70;99.90;;;;;;4862440;29;20465;-93
2021/05/19 03:08:04;;;;;;;2.03;1.87;;;6.60;99.90;;;;;;4846335;29;20410;-87
2021/05/19 03:10:30;;;;;;;2.22;2.03;;;6.60;99.90;;;;;;4882894;29;20412;-93
2021/05/19 03:12:56;;;;;;;2.47;2.27;;;6.70;99.90;;;;;;4839163;29;1220976;-94
2021/05/19 03:15:23;;;;;;;2.17;2.05;;;6.60;99.90;;;;;;4851677;29;20501;-94
2021/05/19 03:18:19;;;;;;;2.60;2.00;;;6.60;99.90;;;;;;4858042;29;20476;-93
2021/05/19 03:20:45;;;;;;;2.35;2.15;;;6.60;99.90;;;;;;4889405;29;20457;-92
2021/05/19 03:23:10;;;;;;;2.22;2.08;;;6.60;99.90;;;;;;4854078;29;20492;-94
2021/05/19 03:25:36;;;;;;;2.07;1.93;;;6.60;99.90;;;;;;4864121;29;20923;-89
2021/05/19 03:28:02;;;;;;;2.45;2.00;;;6.50;99.90;;;;;;4863620;29;20932;-84
2021/05/19 03:30:27;;;;;;;1.97;1.87;;;6.50;99.90;;;;;;4852837;29;20888;-86
2021/05/19 03:32:53;;;;;;;5.80;2.55;;;6.60;99.90;;;;;;4873722;29;20400;-87
2021/05/19 03:35:18;;;;;;;2.50;2.30;;;6.50;99.90;;;;;;4865531;29;20427;-90
2021/05/19 03:37:44;;;;;;;2.63;2.43;;;6.60;99.90;;;;;;4845425;29;20463;-86
2021/05/19 03:40:11;;;;;;;2.60;2.40;;;6.70;99.90;;;;;;4893178;29;20413;-84
2021/05/19 03:42:37;;;;;;;2.53;2.33;;;6.70;99.90;;;;;;4848555;29;20415;-88
2021/05/19 03:45:05;;;;;;;2.30;2.10;;;6.70;99.90;;;;;;4885819;29;20489;-86
2021/05/19 03:47:30;;;;;;;2.53;2.30;;;6.80;99.90;;;;;;4865661;29;20432;-89
2021/05/19 03:49:56;;;;;;;3.37;2.70;;;6.80;99.90;;;;;;4891023;29;20934;-82
2021/05/19 03:52:22;;;;;;;3.00;2.73;;;6.90;99.90;;;;;;4863583;29;20471;-87
2021/05/19 03:54:47;;;;;;;3.30;2.67;;;7.00;99.90;;;;;;4869587;29;20613;-82
2021/05/19 03:57:13;;;;;;;3.33;3.03;;;7.00;99.90;;;;;;4872818;29;20673;-81
2021/05/19 03:59:38;;;;;;;2.70;2.50;;;7.00;99.90;;;;;;4867796;29;20438;-85
2021/05/19 04:02:04;;;;;;;2.87;2.67;;;7.00;99.90;;;;;;4890561;29;20408;-92
2021/05/19 04:04:30;;;;;;;2.67;2.22;;;7.10;99.90;;;;;;4869713;29;20517;-87
2021/05/19 04:06:56;;;;;;;2.70;2.50;;;7.10;99.90;;;;;;4890575;29;20411;-86
2021/05/19 04:09:21;;;;;;;2.53;2.33;;;7.20;99.90;;;;;;4883760;29;20409;-87
2021/05/19 04:11:47;;;;;;;2.90;2.70;;;7.30;99.90;;;;;;4853636;29;20410;-89
2021/05/19 04:14:13;;;;;;;3.20;2.90;;;7.30;99.90;;;;;;4901639;29;20429;-82
2021/05/19 04:16:39;;;;;;;2.70;2.50;;;7.40;99.90;;;;;;4879076;29;20477;-88
2021/05/19 04:19:05;;;;;;;3.72;2.90;;;7.50;99.90;;;;;;4853474;29;20440;-84
2021/05/19 04:21:31;;;;;;;3.38;2.97;;;7.60;99.90;;;;;;4889793;29;20416;-90
2021/05/19 04:23:57;;;;;;;2.90;2.70;;;7.70;99.90;;;;;;4886470;29;20412;-81
2021/05/19 04:26:22;;;;;;;3.23;2.80;;;7.70;99.90;;;;;;4882738;29;20883;-88
2021/05/19 04:28:48;;;;;;;3.80;3.40;;;7.80;99.90;;;;;;4871735;29;20491;-81
2021/05/19 04:31:14;;;;;;;3.17;2.87;;;7.90;99.90;;;;;;4857986;29;20409;-88
2021/05/19 04:33:39;;;;;;;4.35;3.95;;;8.00;99.90;;;;;;4893792;29;20415;-89
2021/05/19 04:36:05;;;;;;;3.20;2.92;;;8.10;99.90;;;;;;4861461;29;20399;-87
2021/05/19 04:38:31;;;;;;;3.27;2.97;;;8.20;99.90;;;;;;4855564;29;20403;-91
2021/05/19 04:40:56;;;;;;;2.90;2.70;;;8.30;99.90;;;;;;4838494;29;20474;-80
2021/05/19 04:43:23;;;;;;;3.10;2.80;;;8.50;99.90;;;;;;4877798;29;20393;-87
2021/05/19 04:45:48;;;;;;;3.25;2.95;;;8.50;99.90;;;;;;4869302;29;20413;-84
2021/05/19 04:48:14;;;;;;;3.50;2.63;;;8.70;99.90;;;;;;4880099;29;20401;-92
2021/05/19 04:50:40;;;;;;;3.13;2.90;;;8.70;99.90;;;;;;4885870;29;20751;-92
2021/05/19 04:53:06;;;;;;;3.63;2.90;;;8.70;99.90;;;;;;4851498;29;20411;-90
2021/05/19 04:55:32;;;;;;;3.13;2.83;;;8.70;99.90;;;;;;4894851;29;20556;-92
2021/05/19 04:57:58;;;;;;;3.27;2.97;;;8.80;99.90;;;;;;4880370;29;20412;-84
2021/05/19 05:00:24;;;;;;;3.10;2.90;;;8.90;99.90;;;;;;4854280;29;20885;-84
2021/05/19 05:02:49;;;;;;;3.03;2.72;;;8.90;99.90;;;;;;4876751;29;20986;-85
2021/05/19 05:05:15;;;;;;;3.10;2.80;;;9.10;99.90;;;;;;4883852;29;20399;-84
2021/05/19 05:07:41;;;;;;;3.85;3.15;;;9.20;99.90;;;;;;4883669;29;20409;-86
2021/05/19 05:10:07;;;;;;;3.38;3.08;;;9.30;99.90;;;;;;4867517;29;20416;-88
2021/05/19 05:12:34;;;;;;;3.60;3.30;;;9.40;99.90;;;;;;4890355;29;20404;-87
2021/05/19 05:15:00;;;;;;;3.50;3.10;;;9.50;99.90;;;;;;4881322;29;20923;-87
2021/05/19 05:17:25;;;;;;;3.87;2.90;;;9.60;99.90;;;;;;4858988;29;20427;-89
2021/05/19 05:19:51;;;;;;;2.90;2.70;;;9.60;99.90;;;;;;4871247;29;20416;-87
2021/05/19 05:22:17;;;;;;;3.00;2.80;;;9.70;99.90;;;;;;4887173;29;20397;-83
2021/05/19 05:24:42;;;;;;;3.03;2.78;;;9.70;99.90;;;;;;4880744;29;20405;-87
2021/05/19 05:27:08;;;;;;;3.53;3.03;;;9.90;99.90;;;;;;4868524;29;20953;-92
2021/05/19 05:29:34;;;;;;;3.38;3.05;;;10.00;99.90;;;;;;4865350;29;20473;-93
2021/05/19 05:31:59;;;;;;;3.30;3.00;;;10.10;99.90;;;;;;4884922;29;20407;-90
2021/05/19 05:34:25;;;;;;;3.28;2.97;;;10.30;99.90;;;;;;4872413;29;20497;-95
2021/05/19 05:36:51;;;;;;;2.78;2.58;;;10.40;99.90;;;;;;4874610;29;20399;-85
2021/05/19 05:39:18;;;;;;;2.50;2.30;;;10.60;99.90;;;;;;4863257;29;20411;-91
2021/05/19 05:41:44;;;;;;;2.80;2.60;;;10.70;99.90;;;;;;4890313;29;20421;-85
2021/05/19 05:44:09;;;;;;;3.50;3.20;;;10.90;99.90;;;;;;4876667;29;20976;-94
2021/05/19 05:46:35;;;;;;;8.77;4.77;;;10.80;99.90;;;;;;4883697;29;20424;-95
2021/05/19 05:49:01;;;;;;;3.35;3.05;;;10.80;99.90;;;;;;4869171;29;20421;-92
2021/05/19 05:51:26;;;;;;;7.28;4.10;;;10.90;99.90;;;;;;4851797;29;20415;-94
2021/05/19 05:53:52;;;;;;;3.80;2.90;;;10.90;99.90;;;;;;4893229;29;20413;-92
2021/05/19 05:56:18;;;;;;;3.97;2.83;;;10.90;99.90;;;;;;4874700;29;20832;-94
2021/05/19 05:58:44;;;;;;;3.15;2.90;;;11.10;99.90;;;;;;4872382;29;20494;-85
2021/05/19 06:01:10;;;;;;;3.30;3.00;;;11.40;99.90;;;;;;4865458;29;20405;-88
2021/05/19 06:03:36;;;;;;;3.42;3.13;;;11.70;99.90;;;;;;4882475;29;20918;-85
2021/05/19 06:06:02;;;;;;;3.20;2.90;;;11.90;99.90;;;;;;4846576;29;20397;-81
2021/05/19 06:08:27;;;;;;;2.85;2.65;;;12.00;99.90;;;;;;4869120;29;20422;-88
2021/05/19 06:10:53;;;;;;;2.87;2.67;;;12.10;99.90;;;;;;4873916;29;20417;-92
2021/05/19 06:13:19;;;;;;;3.80;2.80;;;12.20;99.90;;;;;;4885614;29;20481;-91
2021/05/19 06:15:44;;;;;;;3.13;2.77;;;12.30;99.90;;;;;;4863268;29;20950;-84
2021/05/19 06:18:10;;;;;;;2.65;2.45;;;12.30;99.90;;;;;;4896567;29;20397;-86
2021/05/19 06:20:36;;;;;;;3.13;2.88;;;12.40;99.90;;;;;;4895158;29;20401;-87
2021/05/19 06:23:02;;;;;;;4.23;3.00;;;12.30;99.90;;;;;;4873856;29;20405;-83
2021/05/19 06:25:27;;;;;;;3.90;2.78;;;12.40;99.90;;;;;;4880816;29;20417;-87
2021/05/19 06:27:53;;;;;;;2.17;2.08;;;12.50;99.90;;;;;;4864579;29;20431;-90
2021/05/19 06:30:19;;;;;;;2.67;2.47;;;12.50;99.90;;;;;;4864849;29;20429;-87
2021/05/19 06:32:44;;;;;;;2.58;2.38;;;12.60;99.90;;;;;;4866157;29;21084;-87
2021/05/19 06:35:10;;;;;;;2.85;2.65;;;12.70;99.90;;;;;;4882674;29;20921;-87
2021/05/19 06:37:35;;;;;;;2.50;2.30;;;12.70;99.90;;;;;;4902497;29;20840;-84
2021/05/19 06:40:01;;;;;;;2.83;2.55;;;12.70;99.90;;;;;;4864908;29;20405;-85
2021/05/19 06:42:27;;;;;;;2.50;2.30;;;12.60;99.90;;;;;;4868560;29;20403;-83
2021/05/19 06:44:52;;;;;;;2.72;2.53;;;12.60;99.90;;;;;;4883945;29;20411;-88
2021/05/19 06:47:18;;;;;;;2.90;2.60;;;12.60;99.90;;;;;;4897022;29;20474;-85
2021/05/19 06:49:44;;;;;;;2.72;2.42;;;12.60;99.90;;;;;;4860808;29;20474;-84
2021/05/19 06:52:09;;;;;;;3.47;2.73;;;12.50;99.90;;;;;;4873189;29;21120;-84
2021/05/19 06:54:35;;;;;;;2.57;2.37;;;12.60;99.90;;;;;;4876066;29;20903;-83
2021/05/19 06:57:00;;;;;;;2.92;2.67;;;12.60;99.90;;;;;;4881534;29;20757;-91
2021/05/19 06:59:26;;;;;;;2.87;2.57;;;12.60;99.90;;;;;;4886912;29;20934;-89
2021/05/19 07:01:52;;;;;;;2.90;2.70;;;12.50;99.90;;;;;;4880292;29;21093;-89
2021/05/19 07:04:19;;;;;;;2.50;2.30;;;12.50;99.90;;;;;;4866320;29;20469;-83
2021/05/19 07:06:45;;;;;;;2.50;2.30;;;12.30;99.90;;;;;;4844415;29;20407;-91
2021/05/19 07:09:10;;;;;;;2.60;2.40;;;12.30;99.90;;;;;;4876333;29;20822;-86
2021/05/19 07:11:36;;;;;;;2.83;2.63;;;12.40;99.90;;;;;;4874095;29;20487;-90
2021/05/19 07:14:03;;;;;;;2.87;2.63;;;12.40;99.90;;;;;;4860910;29;20425;-82
2021/05/19 07:16:31;;;;;;;2.28;2.08;;;12.30;99.90;;;;;;4877348;29;20460;-86
2021/05/19 07:18:57;;;;;;;2.67;2.47;;;12.40;99.90;;;;;;4842824;29;20497;-90
2021/05/19 07:21:22;;;;;;;2.37;2.20;;;12.40;99.90;;;;;;4883653;29;20812;-86
2021/05/19 07:23:49;;;;;;;2.72;2.40;;;12.40;99.90;;;;;;4897708;29;21000;-85
2021/05/19 07:26:14;;;;;;;3.03;2.72;;;12.20;99.90;;;;;;4870955;29;20432;-87
2021/05/19 07:28:40;;;;;;;2.73;2.53;;;12.00;99.90;;;;;;4885791;29;20477;-86
2021/05/19 07:31:06;;;;;;;2.80;2.60;;;12.00;99.90;;;;;;4864095;29;20473;-90
2021/05/19 07:33:32;;;;;;;2.80;2.60;;;12.00;99.90;;;;;;4880688;29;20401;-89
2021/05/19 07:35:57;;;;;;;2.67;2.47;;;11.90;99.90;;;;;;4877967;29;20425;-87
2021/05/19 07:38:23;;;;;;;2.95;2.65;;;11.80;99.90;;;;;;4883702;29;20415;-84
2021/05/19 07:40:48;;;;;;;2.83;2.63;;;11.80;99.90;;;;;;4913074;29;20602;-89
2021/05/19 07:43:15;;;;;;;3.03;2.70;;;11.80;99.90;;;;;;4892724;29;20413;-91
2021/05/19 07:45:40;;;;;;;2.90;2.70;;;11.80;99.90;;;;;;4877000;29;20413;-86
2021/05/19 07:48:06;;;;;;;3.10;2.80;;;11.70;99.90;;;;;;4868631;29;20767;-92
2021/05/19 07:50:32;;;;;;;3.10;2.80;;;11.60;99.90;;;;;;4874626;29;20414;-85
2021/05/19 07:52:58;;;;;;;3.28;2.97;;;11.60;99.90;;;;;;4889248;29;20412;-87
2021/05/19 07:55:44;;;;;;;3.17;2.97;;;11.30;99.90;;;;;;4872449;29;20415;-86
2021/05/19 07:58:15;;;;;;;6.10;3.30;;;11.50;99.90;;;;;;4899730;29;20482;-88
2021/05/19 08:01:31;;;;;;;3.72;3.42;;;11.40;99.90;;;;;;4872114;29;20413;-86
2021/05/19 08:03:30;;;;;;;3.40;3.10;;;11.40;99.90;;;;;;4887727;29;20409;-79
2021/05/19 08:05:56;;;;;;;3.10;2.90;;;11.30;99.90;;;;;;4874680;29;20417;-86
2021/05/19 08:08:21;;;;;;;3.53;3.10;;;11.40;99.90;;;;;;4896918;29;20456;-91
2021/05/19 08:10:47;;;;;;;3.15;2.90;;;11.50;99.90;;;;;;4857514;29;20413;-89
2021/05/19 08:13:12;;;;;;;3.33;3.03;;;11.50;99.90;;;;;;4880502;29;20779;-94
2021/05/19 08:15:38;;;;;;;3.25;2.88;;;11.50;99.90;;;;;;4884103;29;20417;-88
2021/05/19 08:18:10;;;;;;;2.80;2.60;;;11.50;99.90;;;;;;4894218;29;20414;-88
2021/05/19 08:20:36;;;;;;;3.03;2.77;;;11.40;99.90;;;;;;4880706;29;20409;-93
2021/05/19 08:23:02;;;;;;;2.65;2.45;;;11.40;99.90;;;;;;4888584;29;20423;-84
2021/05/19 08:25:27;;;;;;;2.88;2.42;;;11.40;99.90;;;;;;4880304;29;20432;-88
2021/05/19 08:27:54;;;;;;;3.37;2.67;;;11.50;99.90;;;;;;4863421;29;20400;-90
2021/05/19 08:30:20;;;;;;;3.00;2.80;;;11.50;99.90;;;;;;4883025;29;20415;-91
2021/05/19 08:32:45;;;;;;;3.30;2.90;;;11.60;99.90;;;;;;4882152;29;20482;-95
2021/05/19 08:35:11;;;;;;;3.35;3.05;;;11.70;99.90;;;;;;4879855;29;20423;-91
2021/05/19 08:37:37;;;;;;;3.07;2.77;;;11.70;99.90;;;;;;4857768;29;20467;-94
2021/05/19 08:40:06;;;;;;;3.13;2.90;;;11.80;99.90;;;;;;4899957;29;20435;-91
2021/05/19 08:42:35;;;;;;;3.45;3.00;;;11.70;99.90;;;;;;4881443;29;20461;-91
2021/05/19 08:45:01;;;;;;;3.38;3.05;;;11.70;99.90;;;;;;4874309;29;20496;-90
2021/05/19 08:47:26;;;;;;;2.90;2.70;;;11.80;99.90;;;;;;4889601;29;21128;-90
2021/05/19 08:49:52;;;;;;;2.97;2.78;;;11.90;99.90;;;;;;4884994;29;20505;-90
2021/05/19 08:52:19;;;;;;;2.40;2.20;;;12.00;99.90;;;;;;4891979;29;20670;-93
2021/05/19 08:54:45;;;;;;;2.47;2.28;;;12.00;99.90;;;;;;4883200;29;20411;-91
2021/05/19 08:57:11;;;;;;;2.40;2.20;;;12.10;99.90;;;;;;4885862;29;20437;-92
2021/05/19 08:59:37;;;;;;;2.42;2.22;;;12.10;99.90;;;;;;4862386;29;20405;-89
2021/05/19 09:02:13;;;;;;;2.30;2.10;;;12.10;99.90;;;;;;4876812;29;20397;-94
2021/05/19 09:04:40;;;;;;;2.17;2.08;;;12.30;99.90;;;;;;4877006;29;20562;-94
2021/05/19 09:07:06;;;;;;;2.28;2.08;;;12.40;99.90;;;;;;4882603;29;20405;-89
2021/05/19 09:09:34;;;;;;;3.13;2.83;;;12.50;99.90;;;;;;4881470;29;20406;-89
2021/05/19 09:12:14;;;;;;;2.40;2.10;;;12.50;99.90;;;;;;4887767;29;20399;-90
2021/05/19 09:14:43;;;;;;;2.10;2.00;;;12.50;99.90;;;;;;4882783;29;20429;-94
2021/05/19 09:17:21;;;;;;;2.35;2.15;;;12.50;99.90;;;;;;4881248;29;20471;-95
2021/05/19 09:19:47;;;;;;;2.35;2.15;;;12.50;99.90;;;;;;4883940;29;20434;-90
2021/05/19 09:22:24;;;;;;;2.25;2.05;;;12.60;99.90;;;;;;4865225;29;20409;-88
2021/05/19 09:24:50;;;;;;;2.30;2.10;;;12.50;99.90;;;;;;4900398;29;20404;-92
2021/05/19 09:27:16;;;;;;;2.40;2.20;;;12.70;99.90;;;;;;4888040;29;20399;-90
2021/05/19 09:29:46;;;;;;;2.13;2.03;;;12.80;99.90;;;;;;4872184;29;20403;-88
2021/05/19 09:32:13;;;;;;;2.20;2.10;;;12.80;99.90;;;;;;4878265;29;20391;-91
2021/05/19 09:34:43;;;;;;;2.60;2.40;;;12.90;99.90;;;;;;4889145;29;20578;-90
2021/05/19 09:37:25;;;;;;;2.03;1.90;;;13.20;99.90;;;;;;4879191;29;20426;-91
2021/05/19 09:40:08;;;;;;;2.70;2.22;;;13.40;99.90;;;;;;4898535;29;20418;-89
2021/05/19 09:42:36;;;;;;;2.20;2.00;;;13.50;99.90;;;;;;4886510;29;20464;-90
2021/05/19 09:45:25;;;;;;;2.25;2.15;;;13.60;99.90;;;;;;4920785;29;20393;-91
2021/05/19 09:47:52;;;;;;;2.38;2.10;;;13.80;99.90;;;;;;4885937;29;20413;-87
2021/05/19 09:50:19;;;;;;;1.90;1.75;;;14.10;99.90;;;;;;4886843;29;20459;-88
2021/05/19 09:53:10;;;;;;;2.03;1.90;;;13.80;99.90;;;;;;4884703;29;20399;-88
2021/05/19 09:55:38;;;;;;;2.20;1.80;;;13.90;99.90;;;;;;4888724;29;20419;-89
2021/05/19 09:58:03;;;;;;;4.30;1.90;;;13.90;99.90;;;;;;4881224;29;20391;-87
2021/05/19 10:00:29;;;;;;;2.00;1.80;;;14.10;99.90;;;;;;4877597;29;20413;-86
2021/05/19 10:02:55;;;;;;;1.90;1.80;;;14.20;99.90;;;;;;4874649;29;20427;-88
2021/05/19 10:05:28;;;;;;;1.57;1.47;;;14.30;99.90;;;;;;4877078;29;20432;-85
2021/05/19 10:07:54;;;;;;;1.77;1.67;;;14.40;99.90;;;;;;4876467;29;20419;-86
2021/05/19 10:10:20;;;;;;;1.73;1.50;;;14.60;99.90;;;;;;4893877;29;20485;-89
2021/05/19 10:12:46;;;;;;;1.70;1.60;;;14.70;99.90;;;;;;4902639;29;20487;-88
2021/05/19 10:15:13;;;;;;;1.57;1.47;;;14.90;99.90;;;;;;4885339;29;20457;-86
2021/05/19 10:17:44;;;;;;;1.40;1.30;;;15.30;99.90;;;;;;4889051;29;20403;-88
2021/05/19 10:20:19;;;;;;;1.50;1.40;;;15.60;99.90;;;;;;4898908;29;20468;-87
2021/05/19 10:22:46;;;;;;;1.60;1.50;;;15.70;99.90;;;;;;4903513;29;20409;-88
2021/05/19 10:25:39;;;;;;;1.63;1.50;;;16.10;99.90;;;;;;4888282;29;20428;-86
2021/05/19 10:28:05;;;;;;;1.80;1.50;;;16.30;99.90;;;;;;4887539;29;20401;-83
2021/05/19 10:30:50;;;;;;;1.50;1.40;;;16.60;99.90;;;;;;4892329;29;20421;-88
2021/05/19 10:33:37;;;;;;;1.63;1.52;;;16.60;99.90;;;;;;4889412;29;20407;-87
2021/05/19 10:36:24;;;;;;;1.50;1.40;;;16.80;99.90;;;;;;4917712;29;20407;-90
2021/05/19 10:39:08;;;;;;;1.40;1.30;;;17.00;99.90;;;;;;4900624;29;20437;-91
2021/05/19 10:41:44;;;;;;;3.20;1.40;;;17.20;99.90;;;;;;4918900;29;20409;-87
2021/05/19 10:44:12;;;;;;;1.30;1.20;;;17.50;99.90;;;;;;4906102;29;20403;-86
2021/05/19 10:47:03;;;;;;;1.30;1.20;;;17.60;99.90;;;;;;4904157;29;20466;-85
2021/05/19 10:49:49;;;;;;;1.45;1.20;;;17.70;99.90;;;;;;4907789;29;20408;-86
2021/05/19 10:57:54;;;;;;;1.10;1.10;;;17.60;99.90;;;;;;4914555;29;20393;-90
2021/05/19 11:00:26;;;;;;;1.40;1.30;;;18.20;99.90;;;;;;4860099;29;20444;-83
2021/05/19 11:03:20;;;;;;;1.27;1.20;;;18.20;99.90;;;;;;4926748;29;20411;-86
2021/05/19 11:06:18;;;;;;;1.35;1.20;;;18.70;99.90;;;;;;4892990;29;20417;-82
2021/05/19 11:09:42;;;;;;;1.38;1.27;;;18.80;99.90;;;;;;4889659;29;20420;-86
2021/05/19 11:12:21;;;;;;;1.10;1.10;;;18.70;99.90;;;;;;4850435;29;20406;-83
2021/05/19 11:15:00;;;;;;;1.20;1.15;;;18.70;99.90;;;;;;4928677;29;20423;-83
2021/05/19 11:17:52;;;;;;;1.27;1.17;;;18.80;99.90;;;;;;4891092;29;20435;-88
2021/05/19 11:20:24;;;;;;;1.30;1.20;;;18.70;99.90;;;;;;4910203;29;20496;-83
2021/05/19 11:24:08;;;;;;;0.90;0.90;;;18.90;99.90;;;;;;4875357;29;20420;-82
2021/05/19 11:47:09;;;;;;;1.17;0.98;;;22.90;97.50;;;;;;5686349;23;20422;-77
2021/05/19 11:49:36;;;;;;;0.90;0.90;;;23.00;92.20;;;;;;4918187;29;20410;-77
2021/05/19 11:52:02;;;;;;;0.80;0.80;;;23.30;95.70;;;;;;4874797;29;20414;-79
2021/05/19 11:54:28;;;;;;;0.90;0.90;;;22.00;80.40;;;;;;4901660;29;20415;-78
2021/05/19 11:56:57;;;;;;;0.90;0.90;;;22.20;88.60;;;;;;4886958;29;20464;-78
2021/05/19 11:59:26;;;;;;;0.77;0.77;;;22.50;84.50;;;;;;4885000;29;20419;-79
2021/05/19 12:02:02;;;;;;;0.90;0.90;;;22.70;88.30;;;;;;4878058;29;20499;-79
2021/05/19 12:04:32;;;;;;;0.93;0.93;;;23.30;86.60;;;;;;4900837;29;20411;-79
2021/05/19 12:07:01;;;;;;;1.00;1.00;;;23.40;84.50;;;;;;4885275;29;20392;-79
2021/05/19 12:09:31;;;;;;;0.90;0.90;;;23.80;85.00;;;;;;4906963;29;20396;-79
2021/05/19 12:12:29;;;;;;;0.90;0.90;;;23.70;81.70;;;;;;4898467;29;20462;-79
2021/05/19 12:14:56;;;;;;;1.20;1.10;;;23.10;85.20;;;;;;4871898;29;20415;-80
2021/05/19 12:17:23;;;;;;;1.90;1.20;;;22.00;85.30;;;;;;4899495;29;20415;-79
2021/05/19 12:19:49;;;;;;;1.02;1.02;;;21.10;92.30;;;;;;4927343;29;20403;-79
2021/05/19 12:22:17;;;;;;;1.40;1.10;;;20.20;95.80;;;;;;4884537;29;20411;-76
2021/05/19 12:24:43;;;;;;;0.95;0.95;;;19.60;99.70;;;;;;4900762;29;20514;-76
2021/05/19 12:27:09;;;;;;;1.30;1.20;;;18.80;99.90;;;;;;4898597;29;20571;-76
2021/05/19 12:30:01;;;;;;;1.30;1.20;;;18.10;99.90;;;;;;4894715;29;20468;-79
2021/05/19 12:32:30;;;;;;;1.30;1.20;;;17.50;99.90;;;;;;4900369;29;20933;-84
2021/05/19 12:35:03;;;;;;;1.55;1.38;;;17.60;99.90;;;;;;4913771;29;21254;-78
2021/05/19 12:37:41;;;;;;;1.15;1.15;;;17.80;99.90;;;;;;4898727;29;21030;-74
2021/05/19 12:40:07;;;;;;;1.08;1.08;;;18.00;99.90;;;;;;4898306;29;20415;-73
2021/05/19 12:42:44;;;;;;;1.13;1.02;;;18.30;99.90;;;;;;4882636;29;20475;-79
2021/05/19 12:45:11;;;;;;;1.50;1.40;;;18.60;99.90;;;;;;4885546;29;20408;-75
2021/05/19 12:47:37;;;;;;;1.10;1.00;;;18.80;99.90;;;;;;4865658;29;20437;-73
2021/05/19 12:50:04;;;;;;;0.80;0.80;;;19.30;99.90;;;;;;4897284;29;20434;-75
2021/05/19 12:52:32;;;;;;;1.00;1.00;;;19.70;99.90;;;;;;4896010;29;20401;-75
2021/05/19 12:54:58;;;;;;;0.70;0.70;;;19.90;99.90;;;;;;4881076;29;20419;-75
2021/05/19 12:57:32;;;;;;;0.93;0.93;;;20.30;99.90;;;;;;4897514;29;20419;-76
2021/05/19 13:00:11;;;;;;;0.93;0.93;;;20.80;99.90;;;;;;4897207;29;20403;-76
2021/05/19 13:02:37;;;;;;;0.90;0.90;;;21.50;99.90;;;;;;4864757;29;20420;-76
2021/05/19 13:05:03;;;;;;;0.90;0.90;;;21.70;99.90;;;;;;4910779;29;20659;-76
2021/05/19 13:07:28;;;;;;;1.00;1.00;;;21.50;99.90;;;;;;4899726;29;20451;-77
2021/05/19 13:10:12;;;;;;;1.02;1.02;;;21.10;99.90;;;;;;4897699;29;20404;-77
2021/05/19 13:12:56;;;;;;;1.10;1.00;;;20.90;99.90;;;;;;4896761;29;20404;-77
2021/05/19 13:15:45;;;;;;;1.10;1.10;;;20.70;99.90;;;;;;4898151;29;20495;-77
2021/05/19 13:18:20;;;;;;;1.10;1.10;;;20.30;99.90;;;;;;4887329;29;20438;-77
2021/05/19 13:21:06;;;;;;;1.50;1.17;;;20.00;99.90;;;;;;4904221;29;20462;-77
2021/05/19 13:23:44;;;;;;;0.98;0.98;;;19.80;99.90;;;;;;4901472;29;20440;-77
2021/05/19 13:26:10;;;;;;;0.80;0.80;;;19.60;99.90;;;;;;4914294;29;20409;-75